Time;durP1;ratioP1;P1;durP2;ratioP2;P2;SDS_P1;SDS_P2;PMS_P1;PMS_P2;Temp;Humidity;BMP_temperature;BMP_pressure;BME280_temperature;BME280_humidity;BME280_pressure;Samples;Min_cycle;Max_cycle;Signal;HPM_P1;HPM_P2
2023/02/18 00:00:06;;;;;;;;;3.00;2.00;;;;;22.30;41.70;102226.78;5070298;27;45451;-71
2023/02/18 00:02:32;;;;;;;;;1.25;1.25;;;;;22.28;41.72;102220.66;5076305;27;45499;-71
2023/02/18 00:04:57;;;;;;;;;3.00;2.00;;;;;22.28;41.58;102221.50;5073967;28;45427;-71
2023/02/18 00:07:22;;;;;;;;;3.00;2.00;;;;;22.28;41.68;102220.66;5094968;27;45341;-71
2023/02/18 00:09:48;;;;;;;;;1.25;1.25;;;;;22.27;41.84;102221.59;5056537;28;57878;-71
2023/02/18 00:12:13;;;;;;;;;3.00;2.50;;;;;22.24;41.58;102222.59;5067347;27;64903;-71
2023/02/18 00:14:38;;;;;;;;;1.00;1.00;;;;;22.25;42.02;102226.13;5060480;28;65332;-71
2023/02/18 00:17:04;;;;;;;;;2.00;2.00;;;;;22.24;41.65;102222.59;5066400;27;45802;-71
2023/02/18 00:19:29;;;;;;;;;1.00;1.00;;;;;22.24;41.91;102222.59;5060209;27;56182;-71
2023/02/18 00:21:54;;;;;;;;;1.75;1.50;;;;;22.26;42.09;102228.72;5070900;28;46024;-71
2023/02/18 00:24:21;;;;;;;;;1.00;1.00;;;;;22.23;41.94;102212.84;5074781;27;63025;-71
2023/02/18 00:26:52;;;;;;;;;4.00;2.25;;;;;22.27;41.99;102218.94;5065128;27;45225;-71
2023/02/18 00:29:18;;;;;;;;;2.00;1.50;;;;;22.25;42.09;102216.31;5068803;27;45909;-71
2023/02/18 00:31:43;;;;;;;;;3.00;1.50;;;;;22.26;41.56;102222.53;5067798;27;46101;-71
2023/02/18 00:34:10;;;;;;;;;3.00;1.75;;;;;22.24;41.73;102222.59;5063451;27;45469;-71
2023/02/18 00:36:35;;;;;;;;;2.00;2.00;;;;;22.26;41.58;102222.53;5071770;27;45486;-71
2023/02/18 00:39:04;;;;;;;;;2.00;2.00;;;;;22.25;41.89;102220.78;5064461;27;45287;-71
2023/02/18 00:41:30;;;;;;;;;2.50;1.00;;;;;22.24;41.87;102221.72;5058626;28;46184;-71
2023/02/18 00:43:55;;;;;;;;;1.00;1.00;;;;;22.24;41.86;102219.94;5069327;28;46164;-71
2023/02/18 00:46:22;;;;;;;;;1.75;1.75;;;;;22.25;41.56;102213.63;5070588;27;45228;-71
2023/02/18 00:48:47;;;;;;;;;1.00;1.00;;;;;22.25;41.93;102221.63;5081640;27;45588;-71
2023/02/18 00:51:13;;;;;;;;;0.75;0.75;;;;;22.23;41.33;102209.34;5056430;28;48387;-71
2023/02/18 00:53:39;;;;;;;;;1.00;1.00;;;;;22.24;41.79;102211.94;5073205;28;45378;-71
2023/02/18 00:56:05;;;;;;;;;1.25;1.25;;;;;22.22;41.86;102215.59;5063674;27;45472;-71
2023/02/18 00:58:31;;;;;;;;;1.00;1.00;;;;;22.21;41.81;102205.91;5075894;27;45595;-71
2023/02/18 01:00:56;;;;;;;;;1.25;1.00;;;;;22.23;41.34;102210.19;5066107;27;46955;-71
2023/02/18 01:03:22;;;;;;;;;2.00;2.00;;;;;22.23;41.46;102204.00;5077827;27;60113;-71
2023/02/18 01:05:49;;;;;;;;;1.00;1.00;;;;;22.23;41.56;102201.34;5055185;27;45390;-71
2023/02/18 01:08:16;;;;;;;;;1.00;1.00;;;;;22.22;41.36;102205.78;5073379;28;45598;-71
2023/02/18 01:10:44;;;;;;;;;1.50;1.50;;;;;22.22;41.79;102199.59;5071303;27;45522;-71
2023/02/18 01:13:10;;;;;;;;;1.25;1.25;;;;;22.22;41.36;102194.28;5066159;27;45778;-71
2023/02/18 01:15:37;;;;;;;;;1.00;1.00;;;;;22.22;41.62;102200.44;5069792;27;45539;-71
2023/02/18 01:18:03;;;;;;;;;0.00;0.00;;;;;22.20;41.38;102197.00;5077178;27;45324;-71
2023/02/18 01:20:28;;;;;;;;;1.50;1.00;;;;;22.19;41.59;102192.63;5066112;27;47013;-71
2023/02/18 01:22:53;;;;;;;;;1.00;1.00;;;;;22.19;41.73;102197.97;5075729;27;45540;-72
2023/02/18 01:25:19;;;;;;;;;1.00;1.00;;;;;22.18;41.56;102189.09;5078975;27;60227;-71
2023/02/18 01:27:44;;;;;;;;;1.00;1.00;;;;;22.18;41.31;102186.44;5074408;28;67851;-70
2023/02/18 01:30:14;;;;;;;;;1.75;1.75;;;;;22.18;41.61;102191.75;5064733;28;48813;-72
2023/02/18 01:32:39;;;;;;;;;1.00;1.00;;;;;22.16;41.68;102190.13;5070774;27;46082;-71
2023/02/18 01:35:05;;;;;;;;;1.00;1.00;;;;;22.17;41.33;102187.38;5076107;27;45551;-72
2023/02/18 01:37:31;;;;;;;;;1.00;1.00;;;;;22.17;41.93;102189.19;5074205;27;45545;-71
2023/02/18 01:39:56;;;;;;;;;3.75;0.75;;;;;22.18;41.69;102182.91;5070769;27;65379;-72
2023/02/18 01:42:25;;;;;;;;;0.75;0.75;;;;;22.18;41.31;102188.25;5077334;27;62792;-71
2023/02/18 01:44:51;;;;;;;;;1.00;1.00;;;;;22.15;41.43;102180.38;5076777;27;45513;-71
2023/02/18 01:47:17;;;;;;;;;0.00;0.00;;;;;22.18;41.38;102177.56;5079413;27;68321;-71
2023/02/18 01:49:45;;;;;;;;;1.00;1.00;;;;;22.16;41.32;102172.31;5075407;27;45460;-71
2023/02/18 01:52:15;;;;;;;;;1.50;1.00;;;;;22.16;41.86;102166.13;5066312;27;45642;-71
2023/02/18 01:54:43;;;;;;;;;2.00;1.00;;;;;22.14;41.51;102170.69;5070472;27;45455;-71
2023/02/18 01:57:16;;;;;;;;;1.75;1.50;;;;;22.13;41.42;102168.94;5063099;28;45934;-71
2023/02/18 01:59:48;;;;;;;;;1.75;1.00;;;;;22.14;41.76;102170.69;5058080;27;47306;-71
2023/02/18 02:02:17;;;;;;;;;1.00;1.00;;;;;22.13;41.32;102168.94;5071685;28;45490;-71
2023/02/18 02:04:43;;;;;;;;;0.00;0.00;;;;;22.13;41.65;102174.28;5064807;27;45565;-71
2023/02/18 02:07:08;;;;;;;;;2.75;1.25;;;;;22.14;41.80;102165.34;5064912;28;45662;-71
2023/02/18 02:09:35;;;;;;;;;0.75;0.75;;;;;22.14;41.61;102162.69;5077708;28;46529;-72
2023/02/18 02:12:12;;;;;;;;;0.00;0.00;;;;;22.14;41.02;102160.88;5076734;27;46011;-71
2023/02/18 02:14:57;;;;;;;;;1.00;1.00;;;;;22.13;41.73;102158.28;5073440;27;45447;-71
2023/02/18 02:18:00;;;;;;;;;1.25;1.25;;;;;22.11;41.51;102155.69;5068367;27;45706;-71
2023/02/18 02:20:49;;;;;;;;;0.50;0.00;;;;;22.12;41.74;102153.91;5102059;27;48201;-71
2023/02/18 02:23:38;;;;;;;;;1.75;0.00;;;;;22.10;41.29;102154.00;5053629;28;45517;-71
2023/02/18 02:26:31;;;;;;;;;1.25;1.00;;;;;22.10;41.25;102143.31;5071734;27;45761;-71
2023/02/18 02:29:21;;;;;;;;;2.00;1.00;;;;;22.10;41.73;102142.47;5084464;27;46035;-71
2023/02/18 02:31:50;;;;;;;;;1.00;1.00;;;;;22.09;41.58;102138.06;5082922;27;48145;-71
2023/02/18 02:34:30;;;;;;;;;1.00;1.00;;;;;22.09;41.57;102130.94;5103736;27;45444;-71
2023/02/18 02:37:15;;;;;;;;;2.00;1.00;;;;;22.08;41.20;102134.56;5071215;27;45470;-71
2023/02/18 02:40:02;;;;;;;;;1.00;1.00;;;;;22.07;41.21;102129.31;5082579;27;46843;-71
2023/02/18 02:42:27;;;;;;;;;1.00;1.00;;;;;22.08;41.55;102137.22;5074840;27;45475;-71
2023/02/18 02:45:31;;;;;;;;;1.00;1.00;;;;;22.07;41.79;102129.31;5079664;27;45387;-71
2023/02/18 02:48:13;;;;;;;;;0.75;0.75;;;;;22.04;41.54;102121.47;5058566;28;45181;-71
2023/02/18 02:50:57;;;;;;;;;0.00;0.00;;;;;22.06;41.52;102123.13;5067722;27;45432;-71
2023/02/18 02:53:26;;;;;;;;;0.75;0.75;;;;;22.04;41.22;102114.31;5063438;27;46235;-71
2023/02/18 02:55:53;;;;;;;;;0.25;0.25;;;;;22.06;41.56;102122.22;5073027;28;45547;-71
2023/02/18 02:58:19;;;;;;;;;0.50;0.50;;;;;22.05;41.70;102109.88;5067607;28;45410;-71
2023/02/18 03:01:08;;;;;;;;;1.00;1.00;;;;;22.04;41.68;102106.31;5076813;27;45474;-71
2023/02/18 03:03:52;;;;;;;;;1.00;0.25;;;;;22.05;41.19;102125.84;5076118;27;46446;-71
2023/02/18 03:06:36;;;;;;;;;0.50;0.50;;;;;22.04;41.57;102113.47;5071583;28;45564;-71
2023/02/18 03:09:28;;;;;;;;;0.75;0.75;;;;;22.03;40.85;102115.28;5077240;27;44735;-71
2023/02/18 03:12:11;;;;;;;;;2.50;0.25;;;;;22.01;41.03;102106.50;5062082;27;45657;-70
2023/02/18 03:15:00;;;;;;;;;0.75;0.50;;;;;22.02;41.08;102110.03;5079047;28;46254;-71
2023/02/18 03:17:29;;;;;;;;;1.00;1.00;;;;;22.02;41.32;102110.03;5084118;27;46016;-71
2023/02/18 03:20:08;;;;;;;;;1.00;1.00;;;;;22.02;41.62;102112.69;5083907;27;45357;-71
2023/02/18 03:22:38;;;;;;;;;0.75;0.75;;;;;22.00;41.16;102102.09;5056794;28;45878;-71
2023/02/18 03:25:04;;;;;;;;;0.75;0.75;;;;;21.99;41.33;102097.69;5065246;28;46477;-71
2023/02/18 03:27:50;;;;;;;;;0.00;0.00;;;;;22.00;41.40;102100.28;5064308;28;45577;-70
2023/02/18 03:30:34;;;;;;;;;0.00;0.00;;;;;21.98;41.33;102102.19;5071118;27;45472;-71
2023/02/18 03:33:03;;;;;;;;;1.50;0.50;;;;;21.98;41.26;102094.19;5075014;28;45327;-71
2023/02/18 03:35:29;;;;;;;;;0.75;0.75;;;;;21.98;41.01;102101.31;5071496;28;46442;-71
2023/02/18 03:38:01;;;;;;;;;1.00;0.00;;;;;21.98;41.15;102096.00;5067548;28;45387;-71
2023/02/18 03:40:28;;;;;;;;;0.00;0.00;;;;;21.98;41.47;102099.50;5074001;27;45870;-71
2023/02/18 03:42:53;;;;;;;;;1.00;0.00;;;;;21.98;41.04;102090.66;5066895;28;45504;-71
2023/02/18 03:45:18;;;;;;;;;0.25;0.25;;;;;21.94;41.33;102089.97;5075965;27;65820;-71
2023/02/18 03:47:44;;;;;;;;;0.00;0.00;;;;;21.96;40.99;102089.88;5078557;28;49038;-71
2023/02/18 03:50:09;;;;;;;;;0.00;0.00;;;;;21.97;41.23;102095.16;5065651;27;63336;-71
2023/02/18 03:52:35;;;;;;;;;0.00;0.00;;;;;21.96;41.32;102101.41;5064939;28;56963;-71
2023/02/18 03:55:04;;;;;;;;;1.00;0.75;;;;;21.96;41.03;102095.22;5064641;27;45450;-71
2023/02/18 03:57:30;;;;;;;;;1.50;1.50;;;;;21.94;40.90;102097.13;5058719;28;45954;-71
2023/02/18 03:59:55;;;;;;;;;2.00;0.25;;;;;21.93;41.31;102093.56;5074796;27;45746;-71
2023/02/18 04:02:20;;;;;;;;;1.25;1.00;;;;;21.95;41.12;102099.66;5069709;28;62702;-71
2023/02/18 04:04:46;;;;;;;;;0.00;0.00;;;;;21.93;40.90;102090.03;5077785;27;54421;-71
2023/02/18 04:07:11;;;;;;;;;2.00;0.00;;;;;21.93;41.23;102096.22;5076982;27;49756;-71
2023/02/18 04:09:37;;;;;;;;;0.00;0.00;;;;;21.94;41.37;102089.13;5068444;27;52625;-71
2023/02/18 04:12:02;;;;;;;;;0.00;0.00;;;;;21.94;41.07;102094.44;5062263;27;52607;-71
2023/02/18 04:14:27;;;;;;;;;0.00;0.00;;;;;21.95;41.18;102098.81;5070307;27;45918;-71
2023/02/18 04:16:53;;;;;;;;;1.00;1.00;;;;;21.92;40.93;102094.53;5051102;28;64055;-71
2023/02/18 04:19:18;;;;;;;;;0.50;0.50;;;;;21.94;40.68;102103.28;5056747;28;45370;-71
2023/02/18 04:21:43;;;;;;;;;0.00;0.00;;;;;21.94;41.23;102094.44;5073763;27;46331;-71
2023/02/18 04:24:09;;;;;;;;;0.50;0.00;;;;;21.93;40.99;102101.56;5067900;27;48778;-71
2023/02/18 04:26:34;;;;;;;;;0.00;0.00;;;;;21.94;40.71;102100.63;5061989;28;45745;-71
2023/02/18 04:28:59;;;;;;;;;0.00;0.00;;;;;21.92;41.15;102094.53;5080265;27;46219;-71
2023/02/18 04:31:25;;;;;;;;;2.00;1.25;;;;;21.92;40.68;102091.84;5069845;28;45467;-71
2023/02/18 04:33:50;;;;;;;;;0.25;0.00;;;;;21.90;40.81;102093.75;5070620;28;59629;-71
2023/02/18 04:36:15;;;;;;;;;0.00;0.00;;;;;21.93;40.51;102100.72;5069813;27;64539;-71
2023/02/18 04:38:41;;;;;;;;;1.00;0.00;;;;;21.94;40.53;102103.28;5071977;27;61432;-71
2023/02/18 04:41:07;;;;;;;;;1.50;0.00;;;;;21.93;40.51;102106.03;5066458;27;45647;-71
2023/02/18 04:43:33;;;;;;;;;0.00;0.00;;;;;21.91;40.61;102090.13;5070510;28;45482;-71
2023/02/18 04:45:58;;;;;;;;;0.00;0.00;;;;;21.91;40.52;102094.59;5066820;27;60436;-71
2023/02/18 04:48:23;;;;;;;;;0.25;0.25;;;;;21.92;41.04;102098.97;5075250;28;45478;-71
2023/02/18 04:50:49;;;;;;;;;0.50;0.50;;;;;21.91;40.49;102089.28;5068654;27;56710;-71
2023/02/18 04:53:14;;;;;;;;;0.00;0.00;;;;;21.91;40.78;102092.78;5064090;27;49484;-71
2023/02/18 04:55:39;;;;;;;;;0.00;0.00;;;;;21.91;40.40;102081.28;5063256;28;60547;-71
2023/02/18 04:58:05;;;;;;;;;0.00;0.00;;;;;21.92;40.41;102080.31;5078748;28;60523;-72
2023/02/18 05:00:30;;;;;;;;;0.00;0.00;;;;;21.92;40.80;102089.19;5074062;27;61778;-72
2023/02/18 05:02:56;;;;;;;;;0.00;0.00;;;;;21.92;40.78;102090.97;5078697;27;66941;-72
2023/02/18 05:05:21;;;;;;;;;0.25;0.25;;;;;21.92;40.74;102096.31;5072911;27;45399;-71
2023/02/18 05:07:46;;;;;;;;;1.25;1.00;;;;;21.90;40.52;102088.41;5060459;28;55286;-71
2023/02/18 05:10:15;;;;;;;;;0.00;0.00;;;;;21.92;40.33;102090.97;5076827;28;65638;-71
2023/02/18 05:12:41;;;;;;;;;2.00;0.00;;;;;21.88;40.60;102095.59;5064271;28;46470;-71
2023/02/18 05:15:07;;;;;;;;;0.75;0.75;;;;;21.89;40.44;102092.00;5076129;27;45315;-72
2023/02/18 05:17:32;;;;;;;;;0.00;0.00;;;;;21.88;40.80;102092.94;5071495;27;45397;-71
2023/02/18 05:19:58;;;;;;;;;1.25;1.25;;;;;21.90;40.12;102101.75;5064273;28;45429;-72
2023/02/18 05:22:23;;;;;;;;;2.00;1.00;;;;;21.89;40.28;102100.00;5069565;27;52703;-72
2023/02/18 05:24:49;;;;;;;;;0.75;0.75;;;;;21.87;40.23;102093.91;5077892;27;45494;-72
2023/02/18 05:27:14;;;;;;;;;0.00;0.00;;;;;21.87;40.54;102099.22;5051331;28;52566;-71
2023/02/18 05:29:39;;;;;;;;;2.50;1.00;;;;;21.87;40.42;102098.34;5067355;27;58885;-71
2023/02/18 05:32:05;;;;;;;;;0.50;0.50;;;;;21.87;40.16;102106.34;5077507;27;52687;-71
2023/02/18 05:34:30;;;;;;;;;0.00;0.00;;;;;21.88;40.56;102102.75;5063224;27;55026;-71
2023/02/18 05:36:55;;;;;;;;;0.00;0.00;;;;;21.86;40.27;102100.16;5064798;27;45445;-71
2023/02/18 05:39:20;;;;;;;;;0.00;0.00;;;;;21.87;40.19;102114.34;5073144;28;59373;-71
2023/02/18 05:41:46;;;;;;;;;0.00;0.00;;;;;21.85;40.50;102094.91;5077149;27;58970;-71
2023/02/18 05:44:29;;;;;;;;;0.00;0.00;;;;;21.86;40.66;102101.97;5056167;28;66036;-72
2023/02/18 05:46:57;;;;;;;;;1.00;0.00;;;;;21.84;40.12;102096.72;5073446;27;45556;-71
2023/02/18 05:49:22;;;;;;;;;0.00;0.00;;;;;21.84;40.24;102095.88;5075693;27;45489;-72
2023/02/18 05:51:48;;;;;;;;;1.00;0.50;;;;;21.84;40.68;102103.88;5073027;27;45803;-71
2023/02/18 05:54:13;;;;;;;;;0.75;0.75;;;;;21.82;40.58;102090.63;5072049;27;61851;-71
2023/02/18 05:56:38;;;;;;;;;0.00;0.00;;;;;21.78;40.22;102097.91;5073607;27;60874;-71
2023/02/18 05:59:04;;;;;;;;;0.00;0.00;;;;;21.78;40.22;102094.41;5066557;27;45538;-71
2023/02/18 06:01:29;;;;;;;;;0.00;0.00;;;;;21.78;40.03;102089.91;5074958;27;71269;-71
2023/02/18 06:03:54;;;;;;;;;0.50;0.00;;;;;21.79;40.24;102086.28;5051710;28;66546;-71
2023/02/18 06:06:20;;;;;;;;;0.00;0.00;;;;;21.82;40.05;102082.63;5058897;28;61669;-71
2023/02/18 06:08:45;;;;;;;;;1.50;1.00;;;;;21.80;40.58;102079.19;5067436;27;45384;-71
2023/02/18 06:11:10;;;;;;;;;0.00;0.00;;;;;21.80;40.07;102081.84;5073850;27;65211;-71
2023/02/18 06:13:36;;;;;;;;;0.00;0.00;;;;;21.79;40.51;102082.78;5074304;27;52069;-72
2023/02/18 06:16:01;;;;;;;;;1.50;0.50;;;;;21.80;40.43;102092.50;5072886;28;56245;-71
2023/02/18 06:18:26;;;;;;;;;0.00;0.00;;;;;21.80;40.06;102090.69;5075300;28;45265;-72
2023/02/18 06:20:52;;;;;;;;;2.50;0.00;;;;;21.80;40.22;102092.50;5072346;28;66032;-71
2023/02/18 06:23:17;;;;;;;;;0.00;0.00;;;;;21.75;40.09;102086.56;5074515;27;45437;-71
2023/02/18 06:25:43;;;;;;;;;0.75;0.00;;;;;21.76;40.56;102082.94;5064670;27;45475;-71
2023/02/18 06:28:08;;;;;;;;;1.00;0.00;;;;;21.76;39.75;102082.94;5072356;28;57205;-71
2023/02/18 06:30:33;;;;;;;;;0.00;0.00;;;;;21.74;39.98;102079.50;5079608;27;47352;-71
2023/02/18 06:32:59;;;;;;;;;0.00;0.00;;;;;21.77;39.99;102082.84;5075670;27;59757;-71
2023/02/18 06:35:24;;;;;;;;;0.00;0.00;;;;;21.78;40.22;102079.25;5079885;27;45493;-71
2023/02/18 06:37:50;;;;;;;;;0.00;0.00;;;;;21.77;40.10;102082.84;5069839;27;48355;-71
2023/02/18 06:40:16;;;;;;;;;0.00;0.00;;;;;21.74;40.30;102072.38;5073615;27;59359;-71
2023/02/18 06:42:41;;;;;;;;;0.00;0.00;;;;;21.76;40.02;102072.28;5106377;27;46611;-71
2023/02/18 06:45:07;;;;;;;;;0.00;0.00;;;;;21.76;39.77;102083.81;5074755;28;45485;-71
2023/02/18 06:47:33;;;;;;;;;0.00;0.00;;;;;21.71;39.88;102067.22;5075886;27;45343;-71
2023/02/18 06:49:58;;;;;;;;;0.75;0.00;;;;;21.75;40.24;102078.56;5060499;27;45531;-71
2023/02/18 06:52:23;;;;;;;;;0.00;0.00;;;;;21.73;40.00;102088.44;5074229;28;62089;-71
2023/02/18 06:54:49;;;;;;;;;2.00;1.00;;;;;21.71;40.05;102082.31;5081239;28;45547;-71
2023/02/18 06:57:14;;;;;;;;;0.00;0.00;;;;;21.74;40.37;102087.47;5079575;27;49963;-71
2023/02/18 06:59:39;;;;;;;;;0.00;0.00;;;;;21.69;39.98;102078.88;5066197;28;67556;-71
2023/02/18 07:02:05;;;;;;;;;1.00;1.00;;;;;21.69;40.02;102071.75;5079318;27;55520;-71
2023/02/18 07:04:30;;;;;;;;;1.00;1.00;;;;;21.73;40.05;102081.31;5065534;27;45640;-71
2023/02/18 07:06:56;;;;;;;;;2.75;2.50;;;;;21.69;39.84;102078.88;5070827;27;45338;-71
2023/02/18 07:09:21;;;;;;;;;4.00;4.00;;;;;21.71;40.11;102083.19;5069166;28;47345;-72
2023/02/18 07:11:47;;;;;;;;;7.50;3.00;;;;;21.68;40.21;102083.34;5045320;28;61572;-71
2023/02/18 07:14:12;;;;;;;;;5.25;2.25;;;;;21.69;40.13;102077.09;5073541;27;45437;-71
2023/02/18 07:16:37;;;;;;;;;2.00;2.00;;;;;21.74;40.17;102075.03;5072154;28;58233;-71
2023/02/18 07:19:03;;;;;;;;;6.25;2.50;;;;;21.72;40.11;102066.25;5060860;28;47075;-72
2023/02/18 07:21:28;;;;;;;;;2.50;1.75;;;;;21.78;40.14;102081.06;5061268;27;62349;-72
2023/02/18 07:23:53;;;;;;;;;3.00;2.00;;;;;21.78;39.89;102083.75;5069035;27;64523;-71
2023/02/18 07:26:19;;;;;;;;;3.50;2.00;;;;;21.75;40.24;102070.56;5068671;27;45379;-71
2023/02/18 07:28:44;;;;;;;;;3.00;2.00;;;;;21.80;40.14;102081.84;5074628;27;66964;-71
2023/02/18 07:31:09;;;;;;;;;1.75;1.50;;;;;21.83;39.87;102080.81;5055316;28;64074;-71
2023/02/18 07:33:35;;;;;;;;;3.00;1.75;;;;;21.87;40.07;102085.91;5075559;28;45371;-71
2023/02/18 07:36:01;;;;;;;;;2.00;1.00;;;;;21.90;40.14;102085.75;5074758;28;67347;-72
2023/02/18 07:38:26;;;;;;;;;1.75;1.00;;;;;21.92;40.13;102083.88;5063055;27;46078;-71
2023/02/18 07:40:52;;;;;;;;;2.00;1.00;;;;;21.90;39.70;102079.53;5077696;27;45284;-72
2023/02/18 07:43:18;;;;;;;;;1.00;1.00;;;;;21.92;40.01;102074.97;5074421;27;45419;-71
2023/02/18 07:45:43;;;;;;;;;3.00;1.00;;;;;21.95;39.74;102085.50;5075064;27;45532;-71
2023/02/18 07:48:09;;;;;;;;;1.00;1.00;;;;;21.93;39.53;102074.06;5068152;27;46515;-72
2023/02/18 07:50:36;;;;;;;;;1.00;1.00;;;;;22.00;40.07;102084.28;5067480;28;45441;-71
2023/02/18 07:53:03;;;;;;;;;1.00;1.00;;;;;22.06;39.80;102088.47;5075202;27;45413;-71
2023/02/18 07:55:47;;;;;;;;;1.00;1.00;;;;;21.94;39.66;102068.66;5064470;28;45402;-72
2023/02/18 07:58:17;;;;;;;;;1.00;1.00;;;;;22.12;40.07;102097.94;5069734;27;47606;-72
2023/02/18 08:00:43;;;;;;;;;2.25;1.50;;;;;22.09;39.88;102085.59;5079605;27;45921;-72
2023/02/18 08:03:08;;;;;;;;;0.75;0.25;;;;;22.15;39.67;102087.94;5063690;28;45486;-72
2023/02/18 08:05:34;;;;;;;;;2.00;1.00;;;;;22.17;39.89;102088.72;5072568;27;45312;-72
2023/02/18 08:07:59;;;;;;;;;1.00;1.00;;;;;22.19;39.59;102094.81;5082117;27;46123;-72
2023/02/18 08:10:25;;;;;;;;;1.00;1.00;;;;;22.19;39.42;102092.16;5078332;27;45426;-72
2023/02/18 08:12:50;;;;;;;;;1.00;0.50;;;;;22.22;39.97;102093.78;5069710;27;45457;-72
2023/02/18 08:15:15;;;;;;;;;2.50;0.00;;;;;22.25;39.84;102104.28;5072347;28;68663;-71
2023/02/18 08:17:41;;;;;;;;;1.75;1.00;;;;;22.28;39.30;102106.84;5075467;27;67871;-71
2023/02/18 08:20:07;;;;;;;;;4.50;0.00;;;;;22.27;39.75;102097.09;5061174;28;46273;-72
2023/02/18 08:22:32;;;;;;;;;1.00;0.25;;;;;22.30;39.62;102104.09;5076845;28;45399;-71
2023/02/18 08:24:58;;;;;;;;;0.00;0.00;;;;;22.33;39.30;102107.44;5072140;27;66512;-72
2023/02/18 08:27:24;;;;;;;;;0.00;0.00;;;;;22.35;39.80;102116.22;5061650;27;47453;-71
2023/02/18 08:29:50;;;;;;;;;1.25;1.00;;;;;22.34;39.65;102109.16;5069883;27;64043;-71
2023/02/18 08:32:15;;;;;;;;;3.00;2.00;;;;;22.35;39.67;102110.88;5063316;28;45334;-71
2023/02/18 08:34:40;;;;;;;;;2.00;2.00;;;;;22.41;39.48;102119.50;5073190;27;65359;-71
2023/02/18 08:37:05;;;;;;;;;3.50;3.50;;;;;22.41;39.09;102111.50;5072648;28;65293;-71
2023/02/18 08:39:35;;;;;;;;;1.25;1.25;;;;;22.44;39.24;102120.19;5062419;28;58553;-71
2023/02/18 08:42:01;;;;;;;;;3.00;3.00;;;;;22.45;39.13;102121.03;5061330;27;45742;-71
2023/02/18 08:44:27;;;;;;;;;2.25;2.25;;;;;22.48;39.60;102123.56;5067051;28;45558;-71
2023/02/18 08:46:52;;;;;;;;;2.00;2.00;;;;;22.49;39.48;102128.81;5105245;27;45333;-72
2023/02/18 08:49:19;;;;;;;;;4.25;3.00;;;;;22.49;39.55;102111.94;5058371;28;45747;-69
2023/02/18 08:51:46;;;;;;;;;1.75;1.50;;;;;22.52;39.62;102127.75;5068298;27;45509;-68
2023/02/18 08:54:11;;;;;;;;;2.50;2.50;;;;;22.52;39.10;102125.09;5074755;27;45554;-69
2023/02/18 08:56:38;;;;;;;;;4.00;3.00;;;;;22.52;39.72;102122.44;5073716;27;45289;-71
2023/02/18 08:59:03;;;;;;;;;3.00;1.25;;;;;22.53;39.53;102132.16;5077049;27;45993;-69
2023/02/18 09:01:29;;;;;;;;;2.00;2.00;;;;;22.55;39.16;102131.13;5067985;27;60110;-69
2023/02/18 09:03:54;;;;;;;;;5.00;3.00;;;;;22.53;39.25;102125.00;5070292;27;45479;-69
2023/02/18 09:06:19;;;;;;;;;4.50;2.00;;;;;22.54;39.50;102129.41;5068607;27;56459;-69
2023/02/18 09:08:45;;;;;;;;;2.50;1.50;;;;;22.54;38.80;102128.53;5072171;27;63545;-71
2023/02/18 09:11:11;;;;;;;;;4.50;2.75;;;;;22.55;39.25;102119.59;5070290;27;45394;-72
2023/02/18 09:13:36;;;;;;;;;3.50;2.50;;;;;22.55;39.07;102127.59;5073938;27;45343;-73
2023/02/18 09:16:03;;;;;;;;;2.25;1.00;;;;;22.55;38.85;102125.78;5075760;27;46081;-72
2023/02/18 09:18:29;;;;;;;;;3.75;2.00;;;;;22.54;39.60;102128.53;5077216;27;45878;-72
2023/02/18 09:20:56;;;;;;;;;2.00;1.00;;;;;22.51;38.80;102118.91;5067224;27;45352;-73
2023/02/18 09:23:21;;;;;;;;;2.75;1.00;;;;;22.53;38.71;102135.69;5077737;27;45545;-73
2023/02/18 09:25:46;;;;;;;;;2.00;2.00;;;;;22.52;38.78;102131.31;5076260;27;67904;-72
2023/02/18 09:28:12;;;;;;;;;0.25;0.00;;;;;22.51;38.71;102132.25;5075513;27;45330;-74
2023/02/18 09:30:38;;;;;;;;;2.75;0.25;;;;;22.51;38.40;102137.59;5083209;27;61978;-74
2023/02/18 09:33:04;;;;;;;;;2.75;0.00;;;;;22.50;38.06;102143.84;5072061;27;45612;-74
2023/02/18 09:35:29;;;;;;;;;1.75;0.50;;;;;22.47;38.06;102133.38;5074360;27;47293;-75
2023/02/18 09:37:54;;;;;;;;;5.00;2.00;;;;;22.47;37.72;102124.47;5070404;27;59453;-75
2023/02/18 09:40:28;;;;;;;;;1.00;1.00;;;;;22.48;37.77;102142.22;5070978;27;45366;-74
2023/02/18 09:42:55;;;;;;;;;3.00;1.00;;;;;22.48;37.89;102136.88;5075797;27;45203;-75
2023/02/18 09:45:21;;;;;;;;;2.50;1.75;;;;;22.47;37.52;102140.50;5080390;27;47591;-74
2023/02/18 09:47:47;;;;;;;;;2.25;1.00;;;;;22.48;38.04;102144.88;5082826;27;45850;-70
2023/02/18 09:50:19;;;;;;;;;1.25;1.25;;;;;22.45;37.83;102137.94;5075450;27;51340;-71
2023/02/18 09:52:45;;;;;;;;;1.00;1.00;;;;;22.45;37.79;102148.59;5068735;27;45655;-71
2023/02/18 09:55:30;;;;;;;;;3.50;1.50;;;;;22.45;37.67;102147.72;5064460;27;53650;-70
2023/02/18 09:58:00;;;;;;;;;2.00;1.50;;;;;22.44;37.44;102138.88;5071413;27;45856;-70
2023/02/18 10:00:35;;;;;;;;;2.00;2.00;;;;;22.40;37.35;102133.78;5064591;28;45242;-72
2023/02/18 10:03:31;;;;;;;;;1.00;1.00;;;;;22.42;37.54;102163.91;5052711;27;45361;-73
2023/02/18 10:06:02;;;;;;;;;2.00;1.00;;;;;22.34;36.99;102143.81;5081241;27;48210;-72
2023/02/18 10:08:39;;;;;;;;;1.00;1.00;;;;;22.32;37.17;102143.06;5082335;27;45470;-80
2023/02/18 10:11:12;;;;;;;;;1.00;1.00;;;;;22.34;36.95;102143.81;5053454;28;45565;-75
2023/02/18 10:13:37;;;;;;;;;9.00;4.25;;;;;22.32;36.69;102150.19;5074191;27;45580;-75
2023/02/18 10:16:04;;;;;;;;;4.00;2.25;;;;;22.29;36.81;102151.25;5068890;27;46205;-75
2023/02/18 10:18:32;;;;;;;;;3.00;3.00;;;;;22.25;36.83;102148.78;5117783;27;45388;-77
2023/02/18 10:21:21;;;;;;;;;2.75;1.00;;;;;22.26;36.63;102147.84;5092570;27;45359;-76
2023/02/18 10:23:55;;;;;;;;;3.75;1.75;;;;;22.25;37.00;102146.97;5053026;28;45625;-76
2023/02/18 10:26:23;;;;;;;;;2.00;1.75;;;;;22.24;37.12;102147.03;5070771;28;46309;-76
2023/02/18 10:29:12;;;;;;;;;3.50;2.00;;;;;22.21;37.08;102140.09;5085779;27;45437;-76
2023/02/18 10:31:43;;;;;;;;;1.00;1.00;;;;;22.24;36.90;102150.59;5078182;27;45879;-77
2023/02/18 10:34:36;;;;;;;;;2.25;2.00;;;;;22.25;37.56;102146.97;5079439;28;45810;-77
2023/02/18 10:37:43;;;;;;;;;3.00;1.50;;;;;22.26;37.03;102148.69;5080304;27;47593;-75
2023/02/18 10:40:14;;;;;;;;;3.00;1.25;;;;;22.29;37.15;102147.69;5083139;27;45701;-76
2023/02/18 10:42:49;;;;;;;;;2.25;1.00;;;;;22.27;37.58;102144.25;5092220;27;45349;-76
2023/02/18 10:45:52;;;;;;;;;2.00;2.00;;;;;22.33;37.30;102155.47;5094269;27;45855;-75
2023/02/18 10:48:33;;;;;;;;;2.75;2.75;;;;;22.35;37.65;102156.22;5082521;27;45332;-80
2023/02/18 10:51:03;;;;;;;;;1.50;1.50;;;;;22.37;37.49;102148.16;5057917;27;45790;-79
2023/02/18 10:53:35;;;;;;;;;3.75;3.50;;;;;22.41;37.71;102152.38;5086949;27;45885;-78
2023/02/18 10:56:00;;;;;;;;;5.75;2.00;;;;;22.43;37.76;102155.81;5067633;27;45535;-79
2023/02/18 10:58:33;;;;;;;;;5.25;3.00;;;;;22.42;37.67;102151.44;5074609;27;46050;-77
2023/02/18 11:01:07;;;;;;;;;4.75;3.00;;;;;22.43;38.02;102153.13;5065514;27;45878;-74
2023/02/18 11:03:43;;;;;;;;;6.25;4.00;;;;;22.46;38.12;102152.97;5074299;27;45328;-74
2023/02/18 11:06:45;;;;;;;;;4.00;2.75;;;;;22.49;38.18;102157.31;5083027;27;45543;-76
2023/02/18 11:09:37;;;;;;;;;3.00;3.00;;;;;22.55;38.28;102155.13;5079009;27;46511;-75
2023/02/18 11:12:23;;;;;;;;;4.50;4.50;;;;;22.54;38.10;102149.88;5071227;28;45716;-75
2023/02/18 11:15:03;;;;;;;;;3.75;3.75;;;;;22.59;38.20;102154.97;5070256;28;45256;-75
2023/02/18 11:17:33;;;;;;;;;4.00;4.00;;;;;22.61;38.23;102156.63;5078495;28;45981;-76
2023/02/18 11:20:00;;;;;;;;;7.50;4.75;;;;;22.62;38.60;102153.00;5068704;28;46613;-82
2023/02/18 11:22:35;;;;;;;;;4.00;3.75;;;;;22.61;38.42;102151.28;5078987;27;45896;-77
2023/02/18 11:25:03;;;;;;;;;4.00;3.00;;;;;22.66;38.64;102153.69;5070459;28;45373;-76
2023/02/18 11:27:43;;;;;;;;;4.25;2.50;;;;;22.67;38.46;102150.94;5054243;28;46324;-76
2023/02/18 11:30:31;;;;;;;;;4.00;4.00;;;;;22.70;38.73;102161.44;5052061;27;47502;-76
2023/02/18 11:33:00;;;;;;;;;5.00;3.00;;;;;22.73;38.30;102165.75;5073271;27;45489;-77